Lawton, Iowa
Current Conditions -  °F | °C
As of 5:52 PM on Friday 28 Nov 2014 (Local Time) from KSUX Reporting Station
Clear Clear  
Wind Chill: 32°   Ceiling: Unl
Heat Index: 39°   Visibility: 10mi
Dew Point: 30°   Wind: 10mph
Humidity: 70%   Direction: 130°SE
Pressure: 29.66"   Gusts: NA
Location:  42.48°N, 96.18°W
Report Text: KSUX 282352Z AUTO 13009KT 10SM CLR 04/M01 A2966 RMK AO2 SLP054 T00391011 10094 20028 58004
Loading
Personal Weather Stations






























Interactive Weather Map New forecast layout! Learn more

10-Day Weather Forecast

Advertisements
Track Severe Weather on mobile